Aérodrome :
LOGIN :

S'inscrire | Disclaimer

   EN    FR    IT 

 










Légende :    VFR   VFR Marginal   IFR   IFR Intensif   IFR Très Intensif
Visi : 
Plafond : 
>= 8 km
>= 3000ft
5 à 8 km
1000 à 3000 ft
1500m à 5 km
500 à 1000 ft
800 à 1500m
200 à 500 ft
< 800m
< 200 ft
Symboles :   Orages  Brouillard  Fortes neiges  Fortes précipitations  Vent > 20 kt
SIGMETs :   Divers  Orages  Givrage  Turbulence  Onde Orograph.  Cendres Volcan.






- Altitude de l'aérodrome : 1768 ft


LEHC - Huesca Pirineos

DERNIER METAR :
  • 190300Z AUTO 29001KT CAVOK 01/M01 Q1030

METARs EXPIRÉS :
  • 190230Z AUTO 27008KT CAVOK 01/M01 Q1030
  • 190200Z AUTO VRB02KT CAVOK 00/M01 Q1030
  • 190130Z AUTO 26003KT 220V350 CAVOK 00/M01 Q1030
  • 190100Z AUTO 27008KT CAVOK 01/M00 Q1030
  • 190030Z AUTO 26006KT CAVOK 01/M00 Q1030

TAF TAF LEHC
Valide du 19 à 03h jusqu'au 20 à 03h UTC


190200Z 1903/2003 VRB04KT 9999 FEW040 TX14/1912Z TN00/1906Z
BECMG 1913/1915 27010KT
BECMG 1917/1920 VRB03KT
BECMG 1921/1923 08010KT



MET'MAP, la Météo Aéronautique d'un coup d'oeil ! - Copyright ORBIFLY Décembre 2007 - Disclaimer

ORBIFLY MET'MAP TEAM :

Programmation & Développement : Alexandra Zaïnal
Sur une idée originale de : Baudouin d'Aumeries
Assistance à la programmation : Marc-Olivier Méhu
Soutien technique & logistique : Manuel Goepfert

Contact : metmap@orbifly.com




SOURCES & CREDITS :

   NOAA